sensor_id;sensor_type;location;lat;lon;timestamp;P1;durP1;ratioP1;P2;durP2;ratioP2
54923;SDS011;40825;52.270;20.984;2024-02-28T00:02:05;46.30;;;25.90;;
54923;SDS011;40825;52.270;20.984;2024-02-28T00:04:30;43.90;;;21.80;;
54923;SDS011;40825;52.270;20.984;2024-02-28T00:06:56;42.80;;;21.80;;
54923;SDS011;40825;52.270;20.984;2024-02-28T00:09:22;43.00;;;21.30;;
54923;SDS011;40825;52.270;20.984;2024-02-28T00:11:47;40.40;;;21.50;;
54923;SDS011;40825;52.270;20.984;2024-02-28T00:14:13;38.70;;;22.30;;
54923;SDS011;40825;52.270;20.984;2024-02-28T00:16:42;37.40;;;20.20;;
54923;SDS011;40825;52.270;20.984;2024-02-28T00:19:09;41.90;;;22.50;;
54923;SDS011;40825;52.270;20.984;2024-02-28T00:21:37;41.70;;;22.10;;
54923;SDS011;40825;52.270;20.984;2024-02-28T00:24:02;40.30;;;22.20;;
54923;SDS011;40825;52.270;20.984;2024-02-28T00:26:28;41.60;;;22.80;;
54923;SDS011;40825;52.270;20.984;2024-02-28T00:28:53;41.60;;;21.80;;
54923;SDS011;40825;52.270;20.984;2024-02-28T00:31:19;41.00;;;23.20;;
54923;SDS011;40825;52.270;20.984;2024-02-28T00:33:46;44.90;;;21.50;;
54923;SDS011;40825;52.270;20.984;2024-02-28T00:36:12;42.70;;;21.80;;
54923;SDS011;40825;52.270;20.984;2024-02-28T00:38:38;39.10;;;21.40;;
54923;SDS011;40825;52.270;20.984;2024-02-28T00:41:03;40.10;;;22.50;;
54923;SDS011;40825;52.270;20.984;2024-02-28T00:43:29;41.50;;;22.50;;
54923;SDS011;40825;52.270;20.984;2024-02-28T00:45:54;45.10;;;23.30;;
54923;SDS011;40825;52.270;20.984;2024-02-28T00:48:21;39.20;;;21.80;;
54923;SDS011;40825;52.270;20.984;2024-02-28T00:50:47;41.80;;;21.70;;
54923;SDS011;40825;52.270;20.984;2024-02-28T00:53:13;44.10;;;22.90;;
54923;SDS011;40825;52.270;20.984;2024-02-28T00:55:38;39.10;;;21.70;;
54923;SDS011;40825;52.270;20.984;2024-02-28T00:58:03;39.10;;;21.20;;
54923;SDS011;40825;52.270;20.984;2024-02-28T01:00:29;44.30;;;21.50;;
54923;SDS011;40825;52.270;20.984;2024-02-28T01:02:54;41.70;;;21.20;;
54923;SDS011;40825;52.270;20.984;2024-02-28T01:05:21;41.80;;;21.30;;
54923;SDS011;40825;52.270;20.984;2024-02-28T01:07:46;41.80;;;23.00;;
54923;SDS011;40825;52.270;20.984;2024-02-28T01:10:12;44.20;;;23.20;;
54923;SDS011;40825;52.270;20.984;2024-02-28T01:12:37;41.50;;;20.70;;
54923;SDS011;40825;52.270;20.984;2024-02-28T01:15:03;40.80;;;22.80;;
54923;SDS011;40825;52.270;20.984;2024-02-28T01:17:29;40.00;;;21.70;;
54923;SDS011;40825;52.270;20.984;2024-02-28T01:19:54;36.30;;;19.40;;
54923;SDS011;40825;52.270;20.984;2024-02-28T01:22:20;40.60;;;22.60;;
54923;SDS011;40825;52.270;20.984;2024-02-28T01:24:45;39.00;;;21.80;;
54923;SDS011;40825;52.270;20.984;2024-02-28T01:27:10;40.90;;;20.60;;
54923;SDS011;40825;52.270;20.984;2024-02-28T01:29:36;41.90;;;20.80;;
54923;SDS011;40825;52.270;20.984;2024-02-28T01:32:02;32.50;;;17.80;;
54923;SDS011;40825;52.270;20.984;2024-02-28T01:34:28;32.10;;;18.30;;
54923;SDS011;40825;52.270;20.984;2024-02-28T01:36:53;38.30;;;20.60;;
54923;SDS011;40825;52.270;20.984;2024-02-28T01:39:18;36.30;;;18.70;;
54923;SDS011;40825;52.270;20.984;2024-02-28T01:41:53;35.40;;;18.50;;
54923;SDS011;40825;52.270;20.984;2024-02-28T01:44:20;33.70;;;17.50;;
54923;SDS011;40825;52.270;20.984;2024-02-28T01:46:46;32.90;;;19.10;;
54923;SDS011;40825;52.270;20.984;2024-02-28T01:49:12;35.30;;;19.70;;
54923;SDS011;40825;52.270;20.984;2024-02-28T01:51:38;40.50;;;19.20;;
54923;SDS011;40825;52.270;20.984;2024-02-28T01:54:05;35.60;;;18.80;;
54923;SDS011;40825;52.270;20.984;2024-02-28T01:56:31;36.00;;;20.20;;
54923;SDS011;40825;52.270;20.984;2024-02-28T01:58:57;35.00;;;19.10;;
54923;SDS011;40825;52.270;20.984;2024-02-28T02:01:23;38.20;;;19.60;;
54923;SDS011;40825;52.270;20.984;2024-02-28T02:03:49;32.10;;;19.10;;
54923;SDS011;40825;52.270;20.984;2024-02-28T02:06:14;33.40;;;18.40;;
54923;SDS011;40825;52.270;20.984;2024-02-28T02:08:40;33.80;;;18.50;;
54923;SDS011;40825;52.270;20.984;2024-02-28T02:11:06;33.90;;;19.50;;
54923;SDS011;40825;52.270;20.984;2024-02-28T02:13:33;34.10;;;20.60;;
54923;SDS011;40825;52.270;20.984;2024-02-28T02:15:58;33.00;;;19.40;;
54923;SDS011;40825;52.270;20.984;2024-02-28T02:18:23;36.70;;;20.20;;
54923;SDS011;40825;52.270;20.984;2024-02-28T02:21:23;35.50;;;19.20;;
54923;SDS011;40825;52.270;20.984;2024-02-28T02:23:42;36.70;;;18.90;;
54923;SDS011;40825;52.270;20.984;2024-02-28T02:26:08;37.30;;;20.60;;
54923;SDS011;40825;52.270;20.984;2024-02-28T02:28:34;39.10;;;18.80;;
54923;SDS011;40825;52.270;20.984;2024-02-28T02:30:59;33.50;;;18.80;;
54923;SDS011;40825;52.270;20.984;2024-02-28T02:33:25;36.40;;;21.40;;
54923;SDS011;40825;52.270;20.984;2024-02-28T02:35:51;36.30;;;19.70;;
54923;SDS011;40825;52.270;20.984;2024-02-28T02:38:18;38.10;;;20.10;;
54923;SDS011;40825;52.270;20.984;2024-02-28T02:40:43;33.60;;;19.20;;
54923;SDS011;40825;52.270;20.984;2024-02-28T02:43:11;35.50;;;20.40;;
54923;SDS011;40825;52.270;20.984;2024-02-28T02:45:36;36.40;;;19.50;;
54923;SDS011;40825;52.270;20.984;2024-02-28T02:48:01;32.00;;;20.30;;
54923;SDS011;40825;52.270;20.984;2024-02-28T02:50:27;38.60;;;20.50;;
54923;SDS011;40825;52.270;20.984;2024-02-28T02:52:52;37.50;;;19.80;;
54923;SDS011;40825;52.270;20.984;2024-02-28T02:55:18;40.50;;;19.70;;
54923;SDS011;40825;52.270;20.984;2024-02-28T02:57:43;35.20;;;20.20;;
54923;SDS011;40825;52.270;20.984;2024-02-28T03:00:09;35.00;;;19.40;;
54923;SDS011;40825;52.270;20.984;2024-02-28T03:02:35;35.30;;;19.10;;
54923;SDS011;40825;52.270;20.984;2024-02-28T03:05:04;40.00;;;21.30;;
54923;SDS011;40825;52.270;20.984;2024-02-28T03:07:30;34.90;;;20.30;;
54923;SDS011;40825;52.270;20.984;2024-02-28T03:09:55;37.50;;;19.00;;
54923;SDS011;40825;52.270;20.984;2024-02-28T03:12:21;36.80;;;22.70;;
54923;SDS011;40825;52.270;20.984;2024-02-28T03:14:47;42.90;;;22.40;;
54923;SDS011;40825;52.270;20.984;2024-02-28T03:17:13;43.50;;;22.10;;
54923;SDS011;40825;52.270;20.984;2024-02-28T03:19:40;38.70;;;21.70;;
54923;SDS011;40825;52.270;20.984;2024-02-28T03:22:06;39.80;;;22.80;;
54923;SDS011;40825;52.270;20.984;2024-02-28T03:24:32;42.50;;;23.40;;
54923;SDS011;40825;52.270;20.984;2024-02-28T03:27:03;42.90;;;24.00;;
54923;SDS011;40825;52.270;20.984;2024-02-28T03:29:29;45.20;;;24.60;;
54923;SDS011;40825;52.270;20.984;2024-02-28T03:31:55;46.70;;;24.30;;
54923;SDS011;40825;52.270;20.984;2024-02-28T03:34:20;45.90;;;25.10;;
54923;SDS011;40825;52.270;20.984;2024-02-28T03:36:46;46.50;;;25.40;;
54923;SDS011;40825;52.270;20.984;2024-02-28T03:39:12;49.90;;;25.90;;
54923;SDS011;40825;52.270;20.984;2024-02-28T03:41:38;47.80;;;25.40;;
54923;SDS011;40825;52.270;20.984;2024-02-28T03:44:04;50.30;;;25.50;;
54923;SDS011;40825;52.270;20.984;2024-02-28T03:46:30;52.00;;;28.50;;
54923;SDS011;40825;52.270;20.984;2024-02-28T03:48:56;49.40;;;28.00;;
54923;SDS011;40825;52.270;20.984;2024-02-28T03:51:22;51.00;;;27.80;;
54923;SDS011;40825;52.270;20.984;2024-02-28T03:53:48;49.00;;;27.20;;
54923;SDS011;40825;52.270;20.984;2024-02-28T03:56:13;50.20;;;27.50;;
54923;SDS011;40825;52.270;20.984;2024-02-28T03:58:46;52.00;;;28.00;;
54923;SDS011;40825;52.270;20.984;2024-02-28T04:01:12;52.20;;;28.20;;
54923;SDS011;40825;52.270;20.984;2024-02-28T04:03:38;51.20;;;27.90;;
54923;SDS011;40825;52.270;20.984;2024-02-28T04:06:04;48.70;;;29.50;;
54923;SDS011;40825;52.270;20.984;2024-02-28T04:08:29;50.40;;;27.60;;
54923;SDS011;40825;52.270;20.984;2024-02-28T04:10:55;45.90;;;26.30;;
54923;SDS011;40825;52.270;20.984;2024-02-28T04:13:20;48.10;;;26.40;;
54923;SDS011;40825;52.270;20.984;2024-02-28T04:15:46;47.00;;;26.00;;
54923;SDS011;40825;52.270;20.984;2024-02-28T04:18:12;45.10;;;26.40;;
54923;SDS011;40825;52.270;20.984;2024-02-28T04:20:37;44.60;;;26.30;;
54923;SDS011;40825;52.270;20.984;2024-02-28T04:23:03;47.20;;;26.80;;
54923;SDS011;40825;52.270;20.984;2024-02-28T04:25:29;46.00;;;26.00;;
54923;SDS011;40825;52.270;20.984;2024-02-28T04:27:55;52.70;;;29.80;;
54923;SDS011;40825;52.270;20.984;2024-02-28T04:30:22;44.60;;;25.40;;
54923;SDS011;40825;52.270;20.984;2024-02-28T04:32:48;49.20;;;26.20;;
54923;SDS011;40825;52.270;20.984;2024-02-28T04:35:14;49.30;;;27.60;;
54923;SDS011;40825;52.270;20.984;2024-02-28T04:37:46;54.90;;;28.50;;
54923;SDS011;40825;52.270;20.984;2024-02-28T04:40:12;51.00;;;29.50;;
54923;SDS011;40825;52.270;20.984;2024-02-28T04:42:39;53.70;;;31.50;;
54923;SDS011;40825;52.270;20.984;2024-02-28T04:45:05;51.80;;;29.00;;
54923;SDS011;40825;52.270;20.984;2024-02-28T04:47:30;54.10;;;28.50;;
54923;SDS011;40825;52.270;20.984;2024-02-28T04:49:57;49.70;;;29.50;;
54923;SDS011;40825;52.270;20.984;2024-02-28T04:52:23;56.30;;;28.90;;
54923;SDS011;40825;52.270;20.984;2024-02-28T04:54:50;50.10;;;27.60;;
54923;SDS011;40825;52.270;20.984;2024-02-28T04:57:16;52.10;;;30.20;;
54923;SDS011;40825;52.270;20.984;2024-02-28T04:59:42;54.30;;;28.60;;
54923;SDS011;40825;52.270;20.984;2024-02-28T05:02:09;52.80;;;28.20;;
54923;SDS011;40825;52.270;20.984;2024-02-28T05:04:34;56.30;;;29.40;;
54923;SDS011;40825;52.270;20.984;2024-02-28T05:07:00;51.60;;;28.30;;
54923;SDS011;40825;52.270;20.984;2024-02-28T05:09:25;55.30;;;30.90;;
54923;SDS011;40825;52.270;20.984;2024-02-28T05:11:51;53.30;;;28.70;;
54923;SDS011;40825;52.270;20.984;2024-02-28T05:14:16;51.10;;;29.50;;
54923;SDS011;40825;52.270;20.984;2024-02-28T05:16:42;54.40;;;29.00;;
54923;SDS011;40825;52.270;20.984;2024-02-28T05:19:07;60.40;;;30.50;;
54923;SDS011;40825;52.270;20.984;2024-02-28T05:21:39;55.10;;;30.40;;
54923;SDS011;40825;52.270;20.984;2024-02-28T05:24:05;53.30;;;29.10;;
54923;SDS011;40825;52.270;20.984;2024-02-28T05:26:31;49.30;;;28.30;;
54923;SDS011;40825;52.270;20.984;2024-02-28T05:28:59;48.10;;;26.60;;
54923;SDS011;40825;52.270;20.984;2024-02-28T05:31:25;48.70;;;27.10;;
54923;SDS011;40825;52.270;20.984;2024-02-28T05:33:51;54.20;;;29.20;;
54923;SDS011;40825;52.270;20.984;2024-02-28T05:36:19;49.90;;;27.30;;
54923;SDS011;40825;52.270;20.984;2024-02-28T05:38:48;50.30;;;29.60;;
54923;SDS011;40825;52.270;20.984;2024-02-28T05:41:14;49.10;;;27.90;;
54923;SDS011;40825;52.270;20.984;2024-02-28T05:46:07;46.80;;;26.30;;
54923;SDS011;40825;52.270;20.984;2024-02-28T05:48:33;48.00;;;28.40;;
54923;SDS011;40825;52.270;20.984;2024-02-28T05:51:00;47.20;;;27.20;;
54923;SDS011;40825;52.270;20.984;2024-02-28T05:53:26;50.40;;;27.50;;
54923;SDS011;40825;52.270;20.984;2024-02-28T05:55:52;49.80;;;26.80;;
54923;SDS011;40825;52.270;20.984;2024-02-28T05:58:19;49.70;;;26.50;;
54923;SDS011;40825;52.270;20.984;2024-02-28T06:00:44;50.00;;;29.60;;
54923;SDS011;40825;52.270;20.984;2024-02-28T06:03:10;44.60;;;26.20;;
54923;SDS011;40825;52.270;20.984;2024-02-28T06:05:36;47.50;;;27.30;;
54923;SDS011;40825;52.270;20.984;2024-02-28T06:08:01;50.30;;;26.10;;
54923;SDS011;40825;52.270;20.984;2024-02-28T06:10:27;47.50;;;26.70;;
54923;SDS011;40825;52.270;20.984;2024-02-28T06:12:52;49.30;;;26.80;;
54923;SDS011;40825;52.270;20.984;2024-02-28T06:15:17;47.40;;;26.50;;
54923;SDS011;40825;52.270;20.984;2024-02-28T06:17:43;46.30;;;25.50;;
54923;SDS011;40825;52.270;20.984;2024-02-28T06:20:09;50.80;;;27.60;;
54923;SDS011;40825;52.270;20.984;2024-02-28T06:22:35;50.10;;;30.30;;
54923;SDS011;40825;52.270;20.984;2024-02-28T06:25:00;47.80;;;28.80;;
54923;SDS011;40825;52.270;20.984;2024-02-28T06:27:26;52.60;;;29.20;;
54923;SDS011;40825;52.270;20.984;2024-02-28T06:29:52;48.80;;;27.40;;
54923;SDS011;40825;52.270;20.984;2024-02-28T06:32:17;56.10;;;33.20;;
54923;SDS011;40825;52.270;20.984;2024-02-28T06:34:43;53.20;;;31.70;;
54923;SDS011;40825;52.270;20.984;2024-02-28T06:37:08;58.10;;;30.60;;
54923;SDS011;40825;52.270;20.984;2024-02-28T06:39:34;58.70;;;34.00;;
54923;SDS011;40825;52.270;20.984;2024-02-28T06:41:59;61.10;;;35.60;;
54923;SDS011;40825;52.270;20.984;2024-02-28T06:44:25;62.30;;;33.20;;
54923;SDS011;40825;52.270;20.984;2024-02-28T06:46:50;54.90;;;31.30;;
54923;SDS011;40825;52.270;20.984;2024-02-28T06:49:16;61.50;;;32.40;;
54923;SDS011;40825;52.270;20.984;2024-02-28T06:51:43;65.90;;;35.60;;
54923;SDS011;40825;52.270;20.984;2024-02-28T06:54:09;64.50;;;32.90;;
54923;SDS011;40825;52.270;20.984;2024-02-28T06:56:35;56.60;;;33.50;;
54923;SDS011;40825;52.270;20.984;2024-02-28T06:59:01;62.10;;;33.30;;
54923;SDS011;40825;52.270;20.984;2024-02-28T07:01:29;58.30;;;32.60;;
54923;SDS011;40825;52.270;20.984;2024-02-28T07:03:54;61.20;;;35.70;;
54923;SDS011;40825;52.270;20.984;2024-02-28T07:06:20;56.40;;;31.30;;
54923;SDS011;40825;52.270;20.984;2024-02-28T07:08:45;57.70;;;32.10;;
54923;SDS011;40825;52.270;20.984;2024-02-28T07:11:14;53.20;;;31.40;;
54923;SDS011;40825;52.270;20.984;2024-02-28T07:13:40;57.30;;;31.70;;
54923;SDS011;40825;52.270;20.984;2024-02-28T07:16:06;55.30;;;32.20;;
54923;SDS011;40825;52.270;20.984;2024-02-28T07:18:32;54.70;;;30.30;;
54923;SDS011;40825;52.270;20.984;2024-02-28T07:20:58;55.60;;;30.50;;
54923;SDS011;40825;52.270;20.984;2024-02-28T07:23:23;56.80;;;30.20;;
54923;SDS011;40825;52.270;20.984;2024-02-28T07:25:49;56.10;;;29.80;;
54923;SDS011;40825;52.270;20.984;2024-02-28T07:28:14;54.20;;;29.60;;
54923;SDS011;40825;52.270;20.984;2024-02-28T07:30:39;50.60;;;28.70;;
54923;SDS011;40825;52.270;20.984;2024-02-28T07:33:05;53.60;;;28.30;;
54923;SDS011;40825;52.270;20.984;2024-02-28T07:35:31;50.80;;;30.20;;
54923;SDS011;40825;52.270;20.984;2024-02-28T07:37:56;53.00;;;29.70;;
54923;SDS011;40825;52.270;20.984;2024-02-28T07:40:22;52.80;;;28.50;;
54923;SDS011;40825;52.270;20.984;2024-02-28T07:42:47;54.70;;;32.20;;
54923;SDS011;40825;52.270;20.984;2024-02-28T07:45:13;50.20;;;30.50;;
54923;SDS011;40825;52.270;20.984;2024-02-28T07:47:38;50.10;;;28.50;;
54923;SDS011;40825;52.270;20.984;2024-02-28T07:50:06;50.30;;;26.60;;
54923;SDS011;40825;52.270;20.984;2024-02-28T07:52:32;50.30;;;28.60;;
54923;SDS011;40825;52.270;20.984;2024-02-28T07:55:00;48.00;;;28.60;;
54923;SDS011;40825;52.270;20.984;2024-02-28T07:57:27;53.80;;;28.20;;
54923;SDS011;40825;52.270;20.984;2024-02-28T07:59:53;52.20;;;28.30;;
54923;SDS011;40825;52.270;20.984;2024-02-28T08:02:18;50.10;;;29.50;;
54923;SDS011;40825;52.270;20.984;2024-02-28T08:04:45;50.60;;;28.30;;
54923;SDS011;40825;52.270;20.984;2024-02-28T08:07:11;45.60;;;26.60;;
54923;SDS011;40825;52.270;20.984;2024-02-28T08:09:37;49.70;;;29.90;;
54923;SDS011;40825;52.270;20.984;2024-02-28T08:12:03;48.80;;;27.00;;
54923;SDS011;40825;52.270;20.984;2024-02-28T08:14:29;48.40;;;27.30;;
54923;SDS011;40825;52.270;20.984;2024-02-28T08:16:54;51.90;;;27.10;;
54923;SDS011;40825;52.270;20.984;2024-02-28T08:19:20;47.10;;;27.30;;
54923;SDS011;40825;52.270;20.984;2024-02-28T08:21:45;49.40;;;26.60;;
54923;SDS011;40825;52.270;20.984;2024-02-28T08:24:11;49.00;;;29.00;;
54923;SDS011;40825;52.270;20.984;2024-02-28T08:26:36;51.10;;;27.00;;
54923;SDS011;40825;52.270;20.984;2024-02-28T08:29:02;50.10;;;27.60;;
54923;SDS011;40825;52.270;20.984;2024-02-28T08:31:28;50.70;;;29.00;;
54923;SDS011;40825;52.270;20.984;2024-02-28T08:33:53;48.00;;;25.90;;
54923;SDS011;40825;52.270;20.984;2024-02-28T08:36:21;49.70;;;27.40;;
54923;SDS011;40825;52.270;20.984;2024-02-28T08:38:46;51.30;;;27.50;;
54923;SDS011;40825;52.270;20.984;2024-02-28T08:41:12;49.10;;;27.60;;
54923;SDS011;40825;52.270;20.984;2024-02-28T08:43:39;50.50;;;27.50;;
54923;SDS011;40825;52.270;20.984;2024-02-28T08:46:05;46.80;;;27.10;;
54923;SDS011;40825;52.270;20.984;2024-02-28T08:48:31;47.70;;;27.80;;
54923;SDS011;40825;52.270;20.984;2024-02-28T08:50:57;51.60;;;30.50;;
54923;SDS011;40825;52.270;20.984;2024-02-28T08:53:23;51.30;;;28.80;;
54923;SDS011;40825;52.270;20.984;2024-02-28T08:55:48;49.50;;;27.80;;
54923;SDS011;40825;52.270;20.984;2024-02-28T08:58:14;53.00;;;28.50;;
54923;SDS011;40825;52.270;20.984;2024-02-28T09:00:40;49.60;;;28.40;;
54923;SDS011;40825;52.270;20.984;2024-02-28T09:03:05;50.10;;;28.90;;
54923;SDS011;40825;52.270;20.984;2024-02-28T09:05:31;52.30;;;27.40;;
54923;SDS011;40825;52.270;20.984;2024-02-28T09:07:56;51.30;;;28.80;;
54923;SDS011;40825;52.270;20.984;2024-02-28T09:10:22;50.70;;;28.70;;
54923;SDS011;40825;52.270;20.984;2024-02-28T09:12:51;46.10;;;26.40;;
54923;SDS011;40825;52.270;20.984;2024-02-28T09:15:17;45.40;;;25.50;;
54923;SDS011;40825;52.270;20.984;2024-02-28T09:17:43;50.50;;;28.00;;
54923;SDS011;40825;52.270;20.984;2024-02-28T09:20:09;47.50;;;26.40;;
54923;SDS011;40825;52.270;20.984;2024-02-28T09:22:35;49.20;;;26.00;;
54923;SDS011;40825;52.270;20.984;2024-02-28T09:25:00;46.60;;;26.60;;
54923;SDS011;40825;52.270;20.984;2024-02-28T09:27:30;44.80;;;25.40;;
54923;SDS011;40825;52.270;20.984;2024-02-28T09:29:56;42.80;;;24.40;;
54923;SDS011;40825;52.270;20.984;2024-02-28T09:32:22;42.10;;;25.40;;
54923;SDS011;40825;52.270;20.984;2024-02-28T09:34:48;44.40;;;25.50;;
54923;SDS011;40825;52.270;20.984;2024-02-28T09:37:14;42.90;;;24.60;;
54923;SDS011;40825;52.270;20.984;2024-02-28T09:39:40;48.90;;;25.60;;
54923;SDS011;40825;52.270;20.984;2024-02-28T09:42:06;42.60;;;22.40;;
54923;SDS011;40825;52.270;20.984;2024-02-28T09:44:33;43.90;;;24.40;;
54923;SDS011;40825;52.270;20.984;2024-02-28T09:46:59;42.60;;;23.90;;
54923;SDS011;40825;52.270;20.984;2024-02-28T09:49:25;42.10;;;24.80;;
54923;SDS011;40825;52.270;20.984;2024-02-28T09:51:52;44.10;;;24.00;;
54923;SDS011;40825;52.270;20.984;2024-02-28T09:54:18;41.30;;;23.60;;
54923;SDS011;40825;52.270;20.984;2024-02-28T09:56:44;41.20;;;23.80;;
54923;SDS011;40825;52.270;20.984;2024-02-28T09:59:10;42.80;;;23.40;;
54923;SDS011;40825;52.270;20.984;2024-02-28T10:01:37;41.60;;;23.90;;
54923;SDS011;40825;52.270;20.984;2024-02-28T10:04:09;48.70;;;24.40;;
54923;SDS011;40825;52.270;20.984;2024-02-28T10:06:36;47.40;;;26.00;;
54923;SDS011;40825;52.270;20.984;2024-02-28T10:09:01;43.20;;;24.80;;
54923;SDS011;40825;52.270;20.984;2024-02-28T10:11:27;44.80;;;24.30;;
54923;SDS011;40825;52.270;20.984;2024-02-28T10:13:53;44.20;;;25.70;;
54923;SDS011;40825;52.270;20.984;2024-02-28T10:16:20;45.40;;;24.90;;
54923;SDS011;40825;52.270;20.984;2024-02-28T10:18:46;41.20;;;26.60;;
54923;SDS011;40825;52.270;20.984;2024-02-28T10:21:12;43.80;;;25.70;;
54923;SDS011;40825;52.270;20.984;2024-02-28T10:23:41;43.60;;;26.20;;
54923;SDS011;40825;52.270;20.984;2024-02-28T10:26:10;47.80;;;24.50;;
54923;SDS011;40825;52.270;20.984;2024-02-28T10:28:37;43.40;;;24.70;;
54923;SDS011;40825;52.270;20.984;2024-02-28T10:31:07;43.00;;;24.30;;
54923;SDS011;40825;52.270;20.984;2024-02-28T10:33:33;47.70;;;26.70;;
54923;SDS011;40825;52.270;20.984;2024-02-28T10:36:02;49.10;;;26.30;;
54923;SDS011;40825;52.270;20.984;2024-02-28T10:38:30;44.90;;;25.10;;
54923;SDS011;40825;52.270;20.984;2024-02-28T10:40:59;43.40;;;25.20;;
54923;SDS011;40825;52.270;20.984;2024-02-28T10:43:28;51.30;;;25.60;;
54923;SDS011;40825;52.270;20.984;2024-02-28T10:45:58;48.60;;;26.50;;
54923;SDS011;40825;52.270;20.984;2024-02-28T10:48:24;48.20;;;25.30;;
54923;SDS011;40825;52.270;20.984;2024-02-28T10:50:51;46.30;;;26.00;;
54923;SDS011;40825;52.270;20.984;2024-02-28T10:53:18;48.10;;;26.80;;
54923;SDS011;40825;52.270;20.984;2024-02-28T10:55:49;45.50;;;25.10;;
54923;SDS011;40825;52.270;20.984;2024-02-28T10:58:14;47.30;;;25.60;;
54923;SDS011;40825;52.270;20.984;2024-02-28T11:00:41;45.80;;;24.90;;
54923;SDS011;40825;52.270;20.984;2024-02-28T11:03:12;45.50;;;25.40;;
54923;SDS011;40825;52.270;20.984;2024-02-28T11:05:41;47.70;;;26.70;;
54923;SDS011;40825;52.270;20.984;2024-02-28T11:10:34;52.00;;;26.40;;
54923;SDS011;40825;52.270;20.984;2024-02-28T11:12:59;50.00;;;26.60;;
54923;SDS011;40825;52.270;20.984;2024-02-28T11:15:25;55.30;;;29.30;;
54923;SDS011;40825;52.270;20.984;2024-02-28T11:17:52;50.40;;;27.60;;
54923;SDS011;40825;52.270;20.984;2024-02-28T11:20:18;53.90;;;28.00;;
54923;SDS011;40825;52.270;20.984;2024-02-28T11:22:44;56.80;;;29.90;;
54923;SDS011;40825;52.270;20.984;2024-02-28T11:25:09;51.30;;;27.60;;
54923;SDS011;40825;52.270;20.984;2024-02-28T11:27:44;55.30;;;28.60;;
54923;SDS011;40825;52.270;20.984;2024-02-28T11:30:14;58.80;;;29.70;;
54923;SDS011;40825;52.270;20.984;2024-02-28T11:32:40;54.20;;;28.80;;
54923;SDS011;40825;52.270;20.984;2024-02-28T11:35:07;59.40;;;30.20;;
54923;SDS011;40825;52.270;20.984;2024-02-28T11:37:33;57.40;;;31.90;;
54923;SDS011;40825;52.270;20.984;2024-02-28T11:39:59;61.80;;;31.80;;
54923;SDS011;40825;52.270;20.984;2024-02-28T11:42:24;64.30;;;33.20;;
54923;SDS011;40825;52.270;20.984;2024-02-28T11:44:53;64.70;;;32.10;;
54923;SDS011;40825;52.270;20.984;2024-02-28T11:47:23;61.30;;;32.40;;
54923;SDS011;40825;52.270;20.984;2024-02-28T11:49:48;69.90;;;36.70;;
54923;SDS011;40825;52.270;20.984;2024-02-28T11:52:15;71.00;;;36.30;;
54923;SDS011;40825;52.270;20.984;2024-02-28T11:54:40;73.20;;;36.90;;
54923;SDS011;40825;52.270;20.984;2024-02-28T11:57:09;75.90;;;37.40;;
54923;SDS011;40825;52.270;20.984;2024-02-28T11:59:39;68.90;;;35.50;;
54923;SDS011;40825;52.270;20.984;2024-02-28T12:02:11;69.30;;;35.70;;
54923;SDS011;40825;52.270;20.984;2024-02-28T12:04:38;60.60;;;28.90;;
54923;SDS011;40825;52.270;20.984;2024-02-28T12:07:10;71.10;;;34.70;;
54923;SDS011;40825;52.270;20.984;2024-02-28T12:09:37;72.60;;;34.70;;
54923;SDS011;40825;52.270;20.984;2024-02-28T12:12:04;70.50;;;36.10;;
54923;SDS011;40825;52.270;20.984;2024-02-28T12:14:32;68.90;;;34.20;;
54923;SDS011;40825;52.270;20.984;2024-02-28T12:16:58;71.40;;;33.50;;
54923;SDS011;40825;52.270;20.984;2024-02-28T12:19:24;69.70;;;37.10;;
54923;SDS011;40825;52.270;20.984;2024-02-28T12:21:49;64.90;;;33.10;;
54923;SDS011;40825;52.270;20.984;2024-02-28T12:24:15;68.50;;;34.50;;
54923;SDS011;40825;52.270;20.984;2024-02-28T12:26:41;65.90;;;31.70;;
54923;SDS011;40825;52.270;20.984;2024-02-28T12:29:07;63.40;;;30.60;;
54923;SDS011;40825;52.270;20.984;2024-02-28T12:31:34;64.10;;;31.30;;
54923;SDS011;40825;52.270;20.984;2024-02-28T12:34:00;58.40;;;29.50;;
54923;SDS011;40825;52.270;20.984;2024-02-28T12:36:29;59.80;;;31.80;;
54923;SDS011;40825;52.270;20.984;2024-02-28T12:38:56;59.30;;;29.70;;
54923;SDS011;40825;52.270;20.984;2024-02-28T12:41:22;56.80;;;29.70;;
54923;SDS011;40825;52.270;20.984;2024-02-28T12:43:49;59.80;;;30.30;;
54923;SDS011;40825;52.270;20.984;2024-02-28T12:46:15;59.70;;;31.30;;
54923;SDS011;40825;52.270;20.984;2024-02-28T12:48:41;56.00;;;29.10;;
54923;SDS011;40825;52.270;20.984;2024-02-28T12:51:06;60.30;;;30.50;;
54923;SDS011;40825;52.270;20.984;2024-02-28T12:53:35;56.60;;;31.00;;
54923;SDS011;40825;52.270;20.984;2024-02-28T12:56:01;56.60;;;32.50;;
54923;SDS011;40825;52.270;20.984;2024-02-28T12:58:27;58.90;;;30.60;;
54923;SDS011;40825;52.270;20.984;2024-02-28T13:00:52;60.50;;;30.60;;
54923;SDS011;40825;52.270;20.984;2024-02-28T13:03:18;55.30;;;29.70;;
54923;SDS011;40825;52.270;20.984;2024-02-28T13:05:43;53.50;;;27.80;;
54923;SDS011;40825;52.270;20.984;2024-02-28T13:08:09;52.10;;;27.30;;
54923;SDS011;40825;52.270;20.984;2024-02-28T13:10:35;53.10;;;25.70;;
54923;SDS011;40825;52.270;20.984;2024-02-28T13:13:05;50.50;;;26.50;;
54923;SDS011;40825;52.270;20.984;2024-02-28T13:15:31;48.90;;;23.40;;
54923;SDS011;40825;52.270;20.984;2024-02-28T13:17:57;42.60;;;21.40;;
54923;SDS011;40825;52.270;20.984;2024-02-28T13:20:22;44.10;;;23.80;;
54923;SDS011;40825;52.270;20.984;2024-02-28T13:22:48;40.70;;;20.10;;
54923;SDS011;40825;52.270;20.984;2024-02-28T13:25:13;41.90;;;22.10;;
54923;SDS011;40825;52.270;20.984;2024-02-28T13:27:40;42.40;;;21.60;;
54923;SDS011;40825;52.270;20.984;2024-02-28T13:30:06;43.60;;;21.30;;
54923;SDS011;40825;52.270;20.984;2024-02-28T13:32:32;45.30;;;23.10;;
54923;SDS011;40825;52.270;20.984;2024-02-28T13:34:57;40.50;;;20.60;;
54923;SDS011;40825;52.270;20.984;2024-02-28T13:37:23;39.40;;;20.90;;
54923;SDS011;40825;52.270;20.984;2024-02-28T13:39:48;43.70;;;21.30;;
54923;SDS011;40825;52.270;20.984;2024-02-28T13:42:17;44.50;;;22.50;;
54923;SDS011;40825;52.270;20.984;2024-02-28T13:44:45;43.50;;;22.50;;
54923;SDS011;40825;52.270;20.984;2024-02-28T13:47:12;41.60;;;21.20;;
54923;SDS011;40825;52.270;20.984;2024-02-28T13:49:39;40.90;;;20.40;;
54923;SDS011;40825;52.270;20.984;2024-02-28T13:52:04;36.00;;;17.00;;
54923;SDS011;40825;52.270;20.984;2024-02-28T13:54:30;35.20;;;17.40;;
54923;SDS011;40825;52.270;20.984;2024-02-28T13:56:56;34.70;;;16.50;;
54923;SDS011;40825;52.270;20.984;2024-02-28T13:59:22;39.40;;;16.90;;
54923;SDS011;40825;52.270;20.984;2024-02-28T14:01:48;35.30;;;16.10;;
54923;SDS011;40825;52.270;20.984;2024-02-28T14:04:14;34.20;;;15.30;;
54923;SDS011;40825;52.270;20.984;2024-02-28T14:06:40;36.50;;;16.60;;
54923;SDS011;40825;52.270;20.984;2024-02-28T14:09:06;38.10;;;16.90;;